sensor_id;sensor_type;location;lat;lon;timestamp;temperature;humidity
53962;DHT22;39868;53.398;6.564;2022-12-19T00:00:26;3.50;76.70
53962;DHT22;39868;53.398;6.564;2022-12-19T00:02:54;3.50;76.70
53962;DHT22;39868;53.398;6.564;2022-12-19T00:05:21;3.60;76.80
53962;DHT22;39868;53.398;6.564;2022-12-19T00:07:50;3.60;76.90
53962;DHT22;39868;53.398;6.564;2022-12-19T00:10:19;3.60;76.90
53962;DHT22;39868;53.398;6.564;2022-12-19T00:12:47;3.60;77.00
53962;DHT22;39868;53.398;6.564;2022-12-19T00:15:14;3.60;77.00
53962;DHT22;39868;53.398;6.564;2022-12-19T00:17:42;3.60;77.00
53962;DHT22;39868;53.398;6.564;2022-12-19T00:20:10;3.60;77.10
53962;DHT22;39868;53.398;6.564;2022-12-19T00:22:40;3.60;77.10
53962;DHT22;39868;53.398;6.564;2022-12-19T00:25:08;3.70;77.10
53962;DHT22;39868;53.398;6.564;2022-12-19T00:27:37;3.70;77.10
53962;DHT22;39868;53.398;6.564;2022-12-19T00:30:04;3.70;77.20
53962;DHT22;39868;53.398;6.564;2022-12-19T00:32:32;3.70;77.20
53962;DHT22;39868;53.398;6.564;2022-12-19T00:35:00;3.70;77.20
53962;DHT22;39868;53.398;6.564;2022-12-19T00:37:27;3.70;77.20
53962;DHT22;39868;53.398;6.564;2022-12-19T00:39:55;3.70;77.30
53962;DHT22;39868;53.398;6.564;2022-12-19T00:42:22;3.70;77.30
53962;DHT22;39868;53.398;6.564;2022-12-19T00:44:50;3.70;77.30
53962;DHT22;39868;53.398;6.564;2022-12-19T00:47:17;3.70;77.30
53962;DHT22;39868;53.398;6.564;2022-12-19T00:49:45;3.80;77.40
53962;DHT22;39868;53.398;6.564;2022-12-19T00:52:14;3.80;77.40
53962;DHT22;39868;53.398;6.564;2022-12-19T00:54:42;3.80;77.50
53962;DHT22;39868;53.398;6.564;2022-12-19T00:57:09;3.80;77.50
53962;DHT22;39868;53.398;6.564;2022-12-19T00:59:39;3.80;77.60
53962;DHT22;39868;53.398;6.564;2022-12-19T01:02:07;3.80;77.60
53962;DHT22;39868;53.398;6.564;2022-12-19T01:04:34;3.80;77.70
53962;DHT22;39868;53.398;6.564;2022-12-19T01:07:11;3.80;77.70
53962;DHT22;39868;53.398;6.564;2022-12-19T01:09:39;3.80;77.70
53962;DHT22;39868;53.398;6.564;2022-12-19T01:12:10;3.90;77.80
53962;DHT22;39868;53.398;6.564;2022-12-19T01:14:56;3.90;77.90
53962;DHT22;39868;53.398;6.564;2022-12-19T01:17:31;3.90;77.90
53962;DHT22;39868;53.398;6.564;2022-12-19T01:20:12;3.90;78.00
53962;DHT22;39868;53.398;6.564;2022-12-19T01:22:40;3.90;78.00
53962;DHT22;39868;53.398;6.564;2022-12-19T01:25:08;3.90;78.00
53962;DHT22;39868;53.398;6.564;2022-12-19T01:27:38;3.90;78.00
53962;DHT22;39868;53.398;6.564;2022-12-19T01:30:06;4.00;78.00
53962;DHT22;39868;53.398;6.564;2022-12-19T01:32:34;4.00;78.10
53962;DHT22;39868;53.398;6.564;2022-12-19T01:35:02;4.00;78.10
53962;DHT22;39868;53.398;6.564;2022-12-19T01:37:30;4.00;78.20
53962;DHT22;39868;53.398;6.564;2022-12-19T01:39:58;4.00;78.10
53962;DHT22;39868;53.398;6.564;2022-12-19T01:42:25;4.10;78.20
53962;DHT22;39868;53.398;6.564;2022-12-19T01:47:50;4.10;78.20
53962;DHT22;39868;53.398;6.564;2022-12-19T01:50:28;4.10;78.20
53962;DHT22;39868;53.398;6.564;2022-12-19T01:52:58;4.10;78.20
53962;DHT22;39868;53.398;6.564;2022-12-19T01:55:29;4.10;78.20
53962;DHT22;39868;53.398;6.564;2022-12-19T01:57:58;4.10;78.30
53962;DHT22;39868;53.398;6.564;2022-12-19T02:00:26;4.10;78.20
53962;DHT22;39868;53.398;6.564;2022-12-19T02:03:01;4.10;78.20
53962;DHT22;39868;53.398;6.564;2022-12-19T02:05:33;4.20;78.30
53962;DHT22;39868;53.398;6.564;2022-12-19T02:08:02;4.20;78.30
53962;DHT22;39868;53.398;6.564;2022-12-19T02:10:30;4.20;78.30
53962;DHT22;39868;53.398;6.564;2022-12-19T02:12:58;4.20;78.30
53962;DHT22;39868;53.398;6.564;2022-12-19T02:15:28;4.20;78.30
53962;DHT22;39868;53.398;6.564;2022-12-19T02:21:27;4.20;78.40
53962;DHT22;39868;53.398;6.564;2022-12-19T02:27:02;4.20;78.40
53962;DHT22;39868;53.398;6.564;2022-12-19T02:33:02;4.30;78.50
53962;DHT22;39868;53.398;6.564;2022-12-19T02:36:03;4.30;78.50
53962;DHT22;39868;53.398;6.564;2022-12-19T02:38:47;4.30;78.50
53962;DHT22;39868;53.398;6.564;2022-12-19T02:41:28;4.30;78.60
53962;DHT22;39868;53.398;6.564;2022-12-19T02:44:50;4.30;78.60
53962;DHT22;39868;53.398;6.564;2022-12-19T02:47:16;4.30;78.60
53962;DHT22;39868;53.398;6.564;2022-12-19T02:49:46;4.30;78.60
53962;DHT22;39868;53.398;6.564;2022-12-19T02:54:53;4.40;78.80
53962;DHT22;39868;53.398;6.564;2022-12-19T02:57:37;4.40;78.90
53962;DHT22;39868;53.398;6.564;2022-12-19T03:00:17;4.40;78.90
53962;DHT22;39868;53.398;6.564;2022-12-19T03:08:39;4.40;79.10
53962;DHT22;39868;53.398;6.564;2022-12-19T03:11:11;4.50;79.20
53962;DHT22;39868;53.398;6.564;2022-12-19T03:14:05;4.50;79.30
53962;DHT22;39868;53.398;6.564;2022-12-19T03:16:34;4.60;79.40
53962;DHT22;39868;53.398;6.564;2022-12-19T03:19:08;4.60;79.30
53962;DHT22;39868;53.398;6.564;2022-12-19T03:21:37;4.60;79.30
53962;DHT22;39868;53.398;6.564;2022-12-19T03:24:08;4.60;79.30
53962;DHT22;39868;53.398;6.564;2022-12-19T03:26:51;4.60;79.30
53962;DHT22;39868;53.398;6.564;2022-12-19T03:29:35;4.60;79.30
53962;DHT22;39868;53.398;6.564;2022-12-19T03:32:06;4.70;79.30
53962;DHT22;39868;53.398;6.564;2022-12-19T03:34:45;4.70;79.30
53962;DHT22;39868;53.398;6.564;2022-12-19T03:37:17;4.70;79.40
53962;DHT22;39868;53.398;6.564;2022-12-19T03:39:49;4.70;79.40
53962;DHT22;39868;53.398;6.564;2022-12-19T03:42:18;4.70;79.40
53962;DHT22;39868;53.398;6.564;2022-12-19T03:45:06;4.70;79.30
53962;DHT22;39868;53.398;6.564;2022-12-19T03:47:43;4.70;79.50
53962;DHT22;39868;53.398;6.564;2022-12-19T03:50:13;4.80;79.70
53962;DHT22;39868;53.398;6.564;2022-12-19T03:52:56;4.80;79.80
53962;DHT22;39868;53.398;6.564;2022-12-19T03:55:34;4.80;79.90
53962;DHT22;39868;53.398;6.564;2022-12-19T03:58:17;4.90;80.10
53962;DHT22;39868;53.398;6.564;2022-12-19T04:00:46;4.90;80.20
53962;DHT22;39868;53.398;6.564;2022-12-19T04:03:18;4.90;80.20
53962;DHT22;39868;53.398;6.564;2022-12-19T04:05:48;4.90;80.30
53962;DHT22;39868;53.398;6.564;2022-12-19T04:08:16;5.00;80.40
53962;DHT22;39868;53.398;6.564;2022-12-19T04:10:54;5.00;80.40
53962;DHT22;39868;53.398;6.564;2022-12-19T04:13:33;5.00;80.40
53962;DHT22;39868;53.398;6.564;2022-12-19T04:16:19;5.00;80.50
53962;DHT22;39868;53.398;6.564;2022-12-19T04:18:58;5.10;80.60
53962;DHT22;39868;53.398;6.564;2022-12-19T04:21:40;5.10;80.60
53962;DHT22;39868;53.398;6.564;2022-12-19T04:24:20;5.10;80.70
53962;DHT22;39868;53.398;6.564;2022-12-19T04:26:52;5.20;80.70
53962;DHT22;39868;53.398;6.564;2022-12-19T04:29:21;5.20;80.70
53962;DHT22;39868;53.398;6.564;2022-12-19T04:31:49;5.20;80.70
53962;DHT22;39868;53.398;6.564;2022-12-19T04:34:19;5.20;80.70
53962;DHT22;39868;53.398;6.564;2022-12-19T04:36:49;5.30;80.80
53962;DHT22;39868;53.398;6.564;2022-12-19T04:39:17;5.20;80.80
53962;DHT22;39868;53.398;6.564;2022-12-19T04:41:44;5.30;80.90
53962;DHT22;39868;53.398;6.564;2022-12-19T04:44:12;5.30;80.90
53962;DHT22;39868;53.398;6.564;2022-12-19T04:46:39;5.30;81.00
53962;DHT22;39868;53.398;6.564;2022-12-19T04:49:07;5.30;81.10
53962;DHT22;39868;53.398;6.564;2022-12-19T04:51:35;5.40;81.10
53962;DHT22;39868;53.398;6.564;2022-12-19T04:54:02;5.40;81.30
53962;DHT22;39868;53.398;6.564;2022-12-19T04:56:30;5.40;81.50
53962;DHT22;39868;53.398;6.564;2022-12-19T04:58:59;5.50;81.70
53962;DHT22;39868;53.398;6.564;2022-12-19T05:01:26;5.50;81.70
53962;DHT22;39868;53.398;6.564;2022-12-19T05:03:54;5.50;81.70
53962;DHT22;39868;53.398;6.564;2022-12-19T05:06:30;5.50;81.90
53962;DHT22;39868;53.398;6.564;2022-12-19T05:08:58;5.50;81.80
53962;DHT22;39868;53.398;6.564;2022-12-19T05:11:25;5.60;81.80
53962;DHT22;39868;53.398;6.564;2022-12-19T05:13:53;5.60;81.80
53962;DHT22;39868;53.398;6.564;2022-12-19T05:16:20;5.60;82.00
53962;DHT22;39868;53.398;6.564;2022-12-19T05:18:48;5.60;82.00
53962;DHT22;39868;53.398;6.564;2022-12-19T05:21:15;5.60;81.90
53962;DHT22;39868;53.398;6.564;2022-12-19T05:23:43;5.60;82.00
53962;DHT22;39868;53.398;6.564;2022-12-19T05:26:11;5.60;82.00
53962;DHT22;39868;53.398;6.564;2022-12-19T05:28:39;5.70;82.20
53962;DHT22;39868;53.398;6.564;2022-12-19T05:31:09;5.70;82.30
53962;DHT22;39868;53.398;6.564;2022-12-19T05:33:38;5.80;82.40
53962;DHT22;39868;53.398;6.564;2022-12-19T05:36:06;5.70;82.30
53962;DHT22;39868;53.398;6.564;2022-12-19T05:38:35;5.80;82.40
53962;DHT22;39868;53.398;6.564;2022-12-19T05:41:12;5.80;82.40
53962;DHT22;39868;53.398;6.564;2022-12-19T05:43:42;5.80;82.40
53962;DHT22;39868;53.398;6.564;2022-12-19T05:46:10;5.80;82.40
53962;DHT22;39868;53.398;6.564;2022-12-19T05:48:38;5.90;82.40
53962;DHT22;39868;53.398;6.564;2022-12-19T05:51:06;5.90;82.50
53962;DHT22;39868;53.398;6.564;2022-12-19T05:53:38;5.90;82.40
53962;DHT22;39868;53.398;6.564;2022-12-19T05:56:16;5.90;82.40
53962;DHT22;39868;53.398;6.564;2022-12-19T05:58:44;6.00;82.50
53962;DHT22;39868;53.398;6.564;2022-12-19T06:03:41;6.00;82.40
53962;DHT22;39868;53.398;6.564;2022-12-19T06:06:18;6.00;82.40
53962;DHT22;39868;53.398;6.564;2022-12-19T06:08:46;6.00;82.50
53962;DHT22;39868;53.398;6.564;2022-12-19T06:11:14;6.10;82.60
53962;DHT22;39868;53.398;6.564;2022-12-19T06:13:41;6.10;82.60
53962;DHT22;39868;53.398;6.564;2022-12-19T06:16:14;6.10;82.60
53962;DHT22;39868;53.398;6.564;2022-12-19T06:18:43;6.10;82.50
53962;DHT22;39868;53.398;6.564;2022-12-19T06:21:21;6.10;82.60
53962;DHT22;39868;53.398;6.564;2022-12-19T06:23:49;6.10;82.60
53962;DHT22;39868;53.398;6.564;2022-12-19T06:26:19;6.20;82.60
53962;DHT22;39868;53.398;6.564;2022-12-19T06:28:49;6.20;82.70
53962;DHT22;39868;53.398;6.564;2022-12-19T06:31:19;6.20;82.80
53962;DHT22;39868;53.398;6.564;2022-12-19T06:33:47;6.20;82.80
53962;DHT22;39868;53.398;6.564;2022-12-19T06:36:26;6.30;82.90
53962;DHT22;39868;53.398;6.564;2022-12-19T06:38:55;6.30;83.00
53962;DHT22;39868;53.398;6.564;2022-12-19T06:41:26;6.30;82.90
53962;DHT22;39868;53.398;6.564;2022-12-19T06:44:14;6.30;83.40
53962;DHT22;39868;53.398;6.564;2022-12-19T06:46:42;6.30;83.00
53962;DHT22;39868;53.398;6.564;2022-12-19T06:49:10;6.40;83.00
53962;DHT22;39868;53.398;6.564;2022-12-19T06:51:39;6.40;83.10
53962;DHT22;39868;53.398;6.564;2022-12-19T06:54:08;6.40;83.10
53962;DHT22;39868;53.398;6.564;2022-12-19T06:56:37;6.40;83.10
53962;DHT22;39868;53.398;6.564;2022-12-19T06:59:06;6.50;83.20
53962;DHT22;39868;53.398;6.564;2022-12-19T07:04:05;6.50;83.30
53962;DHT22;39868;53.398;6.564;2022-12-19T07:06:34;6.50;83.20
53962;DHT22;39868;53.398;6.564;2022-12-19T07:09:01;6.50;83.20
53962;DHT22;39868;53.398;6.564;2022-12-19T07:11:29;6.60;83.20
53962;DHT22;39868;53.398;6.564;2022-12-19T07:13:57;6.60;83.20
53962;DHT22;39868;53.398;6.564;2022-12-19T07:16:24;6.60;83.20
53962;DHT22;39868;53.398;6.564;2022-12-19T07:18:53;6.60;83.30
53962;DHT22;39868;53.398;6.564;2022-12-19T07:21:20;6.60;83.30
53962;DHT22;39868;53.398;6.564;2022-12-19T07:23:48;6.70;83.40
53962;DHT22;39868;53.398;6.564;2022-12-19T07:26:16;6.70;83.50
53962;DHT22;39868;53.398;6.564;2022-12-19T07:28:43;6.70;83.60
53962;DHT22;39868;53.398;6.564;2022-12-19T07:31:11;6.80;83.70
53962;DHT22;39868;53.398;6.564;2022-12-19T07:33:39;6.80;83.80
53962;DHT22;39868;53.398;6.564;2022-12-19T07:36:06;6.80;83.90
53962;DHT22;39868;53.398;6.564;2022-12-19T07:38:34;6.90;84.00
53962;DHT22;39868;53.398;6.564;2022-12-19T07:41:02;6.90;84.10
53962;DHT22;39868;53.398;6.564;2022-12-19T07:43:30;7.00;84.10
53962;DHT22;39868;53.398;6.564;2022-12-19T07:45:57;7.00;84.00
53962;DHT22;39868;53.398;6.564;2022-12-19T07:48:25;7.10;84.10
53962;DHT22;39868;53.398;6.564;2022-12-19T07:50:55;7.10;84.00
53962;DHT22;39868;53.398;6.564;2022-12-19T07:53:22;7.10;84.10
53962;DHT22;39868;53.398;6.564;2022-12-19T07:55:51;7.20;84.20
53962;DHT22;39868;53.398;6.564;2022-12-19T07:58:18;7.20;84.20
53962;DHT22;39868;53.398;6.564;2022-12-19T08:00:56;7.20;84.30
53962;DHT22;39868;53.398;6.564;2022-12-19T08:03:24;7.20;84.80
53962;DHT22;39868;53.398;6.564;2022-12-19T08:05:51;7.30;84.20
53962;DHT22;39868;53.398;6.564;2022-12-19T08:08:19;7.30;84.30
53962;DHT22;39868;53.398;6.564;2022-12-19T08:10:47;7.30;84.20
53962;DHT22;39868;53.398;6.564;2022-12-19T08:13:15;7.40;84.40
53962;DHT22;39868;53.398;6.564;2022-12-19T08:15:42;7.40;84.40
53962;DHT22;39868;53.398;6.564;2022-12-19T08:18:10;7.50;84.40
53962;DHT22;39868;53.398;6.564;2022-12-19T08:20:38;7.50;84.50
53962;DHT22;39868;53.398;6.564;2022-12-19T08:23:06;7.50;84.50
53962;DHT22;39868;53.398;6.564;2022-12-19T08:25:35;7.50;84.50
53962;DHT22;39868;53.398;6.564;2022-12-19T08:28:03;7.60;84.50
53962;DHT22;39868;53.398;6.564;2022-12-19T08:30:31;7.60;84.50
53962;DHT22;39868;53.398;6.564;2022-12-19T08:32:58;7.60;84.50
53962;DHT22;39868;53.398;6.564;2022-12-19T08:35:26;7.70;84.60
53962;DHT22;39868;53.398;6.564;2022-12-19T08:37:53;7.70;84.60
53962;DHT22;39868;53.398;6.564;2022-12-19T08:40:21;7.70;84.60
53962;DHT22;39868;53.398;6.564;2022-12-19T08:42:49;7.70;84.50
53962;DHT22;39868;53.398;6.564;2022-12-19T08:45:17;7.80;84.60
53962;DHT22;39868;53.398;6.564;2022-12-19T08:47:44;7.80;84.70
53962;DHT22;39868;53.398;6.564;2022-12-19T08:50:12;7.80;84.60
53962;DHT22;39868;53.398;6.564;2022-12-19T08:52:40;7.80;84.60
53962;DHT22;39868;53.398;6.564;2022-12-19T08:55:08;7.90;84.70
53962;DHT22;39868;53.398;6.564;2022-12-19T08:57:36;7.90;84.80
53962;DHT22;39868;53.398;6.564;2022-12-19T09:00:06;7.90;84.70
53962;DHT22;39868;53.398;6.564;2022-12-19T09:02:53;8.00;84.90
53962;DHT22;39868;53.398;6.564;2022-12-19T09:05:21;8.00;84.80
53962;DHT22;39868;53.398;6.564;2022-12-19T09:08:08;8.00;84.90
53962;DHT22;39868;53.398;6.564;2022-12-19T09:10:37;8.10;85.00
53962;DHT22;39868;53.398;6.564;2022-12-19T09:13:05;8.10;85.00
53962;DHT22;39868;53.398;6.564;2022-12-19T09:15:32;8.20;85.00
53962;DHT22;39868;53.398;6.564;2022-12-19T09:18:02;8.20;85.00
53962;DHT22;39868;53.398;6.564;2022-12-19T09:20:29;8.20;85.00
53962;DHT22;39868;53.398;6.564;2022-12-19T09:22:57;8.20;85.10
53962;DHT22;39868;53.398;6.564;2022-12-19T09:25:24;8.30;85.10
53962;DHT22;39868;53.398;6.564;2022-12-19T09:27:52;8.40;85.10
53962;DHT22;39868;53.398;6.564;2022-12-19T09:30:40;8.40;85.20
53962;DHT22;39868;53.398;6.564;2022-12-19T09:33:07;8.40;85.10
53962;DHT22;39868;53.398;6.564;2022-12-19T09:35:35;8.40;85.10
53962;DHT22;39868;53.398;6.564;2022-12-19T09:38:03;8.50;85.20
53962;DHT22;39868;53.398;6.564;2022-12-19T09:40:44;8.50;85.20
53962;DHT22;39868;53.398;6.564;2022-12-19T09:43:40;8.60;85.30
53962;DHT22;39868;53.398;6.564;2022-12-19T09:49:38;8.70;85.40
53962;DHT22;39868;53.398;6.564;2022-12-19T09:52:22;8.70;85.40
53962;DHT22;39868;53.398;6.564;2022-12-19T09:57:46;8.90;85.60
53962;DHT22;39868;53.398;6.564;2022-12-19T10:00:20;8.90;85.60
53962;DHT22;39868;53.398;6.564;2022-12-19T10:05:45;9.00;85.50
53962;DHT22;39868;53.398;6.564;2022-12-19T10:08:36;9.00;85.60
53962;DHT22;39868;53.398;6.564;2022-12-19T10:17:51;9.20;85.60
53962;DHT22;39868;53.398;6.564;2022-12-19T10:20:36;9.20;85.60
53962;DHT22;39868;53.398;6.564;2022-12-19T10:26:33;9.30;85.60
53962;DHT22;39868;53.398;6.564;2022-12-19T10:32:00;9.40;85.60
53962;DHT22;39868;53.398;6.564;2022-12-19T10:34:40;9.40;85.50
53962;DHT22;39868;53.398;6.564;2022-12-19T10:37:28;9.40;85.60
53962;DHT22;39868;53.398;6.564;2022-12-19T10:46:36;9.60;85.70
53962;DHT22;39868;53.398;6.564;2022-12-19T10:49:20;9.70;85.80
53962;DHT22;39868;53.398;6.564;2022-12-19T10:51:59;9.70;85.80
53962;DHT22;39868;53.398;6.564;2022-12-19T10:54:38;9.70;85.80
53962;DHT22;39868;53.398;6.564;2022-12-19T11:00:04;9.80;85.80
53962;DHT22;39868;53.398;6.564;2022-12-19T11:05:41;9.90;85.90
53962;DHT22;39868;53.398;6.564;2022-12-19T11:08:17;9.90;85.90
53962;DHT22;39868;53.398;6.564;2022-12-19T11:16:33;10.10;86.00
53962;DHT22;39868;53.398;6.564;2022-12-19T11:19:38;10.10;86.00
53962;DHT22;39868;53.398;6.564;2022-12-19T11:22:33;10.20;85.90
53962;DHT22;39868;53.398;6.564;2022-12-19T11:25:36;10.20;85.90
53962;DHT22;39868;53.398;6.564;2022-12-19T11:28:27;10.30;85.90
53962;DHT22;39868;53.398;6.564;2022-12-19T11:31:25;10.30;85.90
53962;DHT22;39868;53.398;6.564;2022-12-19T11:34:20;10.30;85.80
53962;DHT22;39868;53.398;6.564;2022-12-19T11:36:59;10.40;85.80
53962;DHT22;39868;53.398;6.564;2022-12-19T11:47:38;10.50;85.80
53962;DHT22;39868;53.398;6.564;2022-12-19T11:50:18;10.60;85.90
53962;DHT22;39868;53.398;6.564;2022-12-19T11:53:26;10.60;85.80
53962;DHT22;39868;53.398;6.564;2022-12-19T11:58:34;10.70;85.80
53962;DHT22;39868;53.398;6.564;2022-12-19T12:01:07;10.70;85.70
53962;DHT22;39868;53.398;6.564;2022-12-19T12:06:33;10.80;85.80
53962;DHT22;39868;53.398;6.564;2022-12-19T12:09:31;10.90;85.80
53962;DHT22;39868;53.398;6.564;2022-12-19T12:16:04;10.90;85.80
53962;DHT22;39868;53.398;6.564;2022-12-19T12:19:06;11.00;85.90
53962;DHT22;39868;53.398;6.564;2022-12-19T12:25:06;11.10;85.90
53962;DHT22;39868;53.398;6.564;2022-12-19T12:28:06;11.10;85.80
53962;DHT22;39868;53.398;6.564;2022-12-19T12:31:07;11.10;85.70
53962;DHT22;39868;53.398;6.564;2022-12-19T12:45:44;11.30;85.60
53962;DHT22;39868;53.398;6.564;2022-12-19T12:48:35;11.30;85.50
53962;DHT22;39868;53.398;6.564;2022-12-19T12:51:05;11.30;85.40
53962;DHT22;39868;53.398;6.564;2022-12-19T12:53:36;11.30;85.30
53962;DHT22;39868;53.398;6.564;2022-12-19T12:56:08;11.40;85.40
53962;DHT22;39868;53.398;6.564;2022-12-19T13:06:37;11.50;85.20
53962;DHT22;39868;53.398;6.564;2022-12-19T13:11:39;11.50;85.00
53962;DHT22;39868;53.398;6.564;2022-12-19T13:17:05;11.50;85.00
53962;DHT22;39868;53.398;6.564;2022-12-19T13:24:59;11.50;84.90
53962;DHT22;39868;53.398;6.564;2022-12-19T13:27:39;11.50;84.90
53962;DHT22;39868;53.398;6.564;2022-12-19T13:38:20;11.60;84.70
53962;DHT22;39868;53.398;6.564;2022-12-19T13:41:29;11.60;84.60
53962;DHT22;39868;53.398;6.564;2022-12-19T13:44:20;11.60;84.60
53962;DHT22;39868;53.398;6.564;2022-12-19T13:46:48;11.60;84.60
53962;DHT22;39868;53.398;6.564;2022-12-19T13:49:27;11.60;84.60
53962;DHT22;39868;53.398;6.564;2022-12-19T13:52:00;11.60;84.50
53962;DHT22;39868;53.398;6.564;2022-12-19T13:54:30;11.60;85.00
53962;DHT22;39868;53.398;6.564;2022-12-19T13:57:01;11.60;84.40
53962;DHT22;39868;53.398;6.564;2022-12-19T13:59:37;11.60;84.40
53962;DHT22;39868;53.398;6.564;2022-12-19T14:02:16;11.60;84.50
53962;DHT22;39868;53.398;6.564;2022-12-19T14:04:46;11.60;84.40
53962;DHT22;39868;53.398;6.564;2022-12-19T14:07:40;11.60;84.40
53962;DHT22;39868;53.398;6.564;2022-12-19T14:10:20;11.60;84.50
53962;DHT22;39868;53.398;6.564;2022-12-19T14:13:17;11.60;84.50
53962;DHT22;39868;53.398;6.564;2022-12-19T14:16:24;11.60;84.50
53962;DHT22;39868;53.398;6.564;2022-12-19T14:19:25;11.50;84.60
53962;DHT22;39868;53.398;6.564;2022-12-19T14:27:52;11.50;84.90
53962;DHT22;39868;53.398;6.564;2022-12-19T14:30:50;11.50;85.00
53962;DHT22;39868;53.398;6.564;2022-12-19T14:33:25;11.60;85.00
53962;DHT22;39868;53.398;6.564;2022-12-19T14:36:27;11.50;85.00
53962;DHT22;39868;53.398;6.564;2022-12-19T14:38:56;11.60;85.20
53962;DHT22;39868;53.398;6.564;2022-12-19T14:41:48;11.60;85.20
53962;DHT22;39868;53.398;6.564;2022-12-19T14:47:37;11.60;85.40
53962;DHT22;39868;53.398;6.564;2022-12-19T14:50:33;11.60;85.40
53962;DHT22;39868;53.398;6.564;2022-12-19T14:53:22;11.60;85.50
53962;DHT22;39868;53.398;6.564;2022-12-19T14:56:12;11.60;85.50
53962;DHT22;39868;53.398;6.564;2022-12-19T14:59:01;11.60;85.50
53962;DHT22;39868;53.398;6.564;2022-12-19T15:01:32;11.60;85.40
53962;DHT22;39868;53.398;6.564;2022-12-19T15:04:03;11.60;85.40
53962;DHT22;39868;53.398;6.564;2022-12-19T15:06:57;11.60;85.40
53962;DHT22;39868;53.398;6.564;2022-12-19T15:10:01;11.60;85.40
53962;DHT22;39868;53.398;6.564;2022-12-19T15:16:00;11.60;85.30
53962;DHT22;39868;53.398;6.564;2022-12-19T15:21:03;11.60;85.30
53962;DHT22;39868;53.398;6.564;2022-12-19T15:23:31;11.60;85.20
53962;DHT22;39868;53.398;6.564;2022-12-19T15:26:01;11.60;85.20
53962;DHT22;39868;53.398;6.564;2022-12-19T15:28:43;11.60;85.20
53962;DHT22;39868;53.398;6.564;2022-12-19T15:33:50;11.60;85.10
53962;DHT22;39868;53.398;6.564;2022-12-19T15:36:38;11.70;85.10
53962;DHT22;39868;53.398;6.564;2022-12-19T15:39:05;11.70;85.10
53962;DHT22;39868;53.398;6.564;2022-12-19T15:41:33;11.60;85.00
53962;DHT22;39868;53.398;6.564;2022-12-19T15:44:09;11.70;85.00
53962;DHT22;39868;53.398;6.564;2022-12-19T15:46:37;11.60;84.90
53962;DHT22;39868;53.398;6.564;2022-12-19T15:49:18;11.60;84.90
53962;DHT22;39868;53.398;6.564;2022-12-19T15:51:47;11.70;85.00
53962;DHT22;39868;53.398;6.564;2022-12-19T15:54:15;11.60;84.80
53962;DHT22;39868;53.398;6.564;2022-12-19T15:57:03;11.60;84.80
53962;DHT22;39868;53.398;6.564;2022-12-19T15:59:43;11.70;84.90
53962;DHT22;39868;53.398;6.564;2022-12-19T16:02:17;11.60;84.80
53962;DHT22;39868;53.398;6.564;2022-12-19T16:04:46;11.60;84.80
53962;DHT22;39868;53.398;6.564;2022-12-19T16:07:21;11.70;84.90
53962;DHT22;39868;53.398;6.564;2022-12-19T16:09:49;11.70;85.00
53962;DHT22;39868;53.398;6.564;2022-12-19T16:12:20;11.70;84.90
53962;DHT22;39868;53.398;6.564;2022-12-19T16:14:57;11.70;84.90
53962;DHT22;39868;53.398;6.564;2022-12-19T16:17:29;11.70;84.90
53962;DHT22;39868;53.398;6.564;2022-12-19T16:19:58;11.70;84.90
53962;DHT22;39868;53.398;6.564;2022-12-19T16:22:27;11.70;84.90
53962;DHT22;39868;53.398;6.564;2022-12-19T16:24:55;11.70;84.80
53962;DHT22;39868;53.398;6.564;2022-12-19T16:27:28;11.70;84.80
53962;DHT22;39868;53.398;6.564;2022-12-19T16:30:14;11.70;84.70
53962;DHT22;39868;53.398;6.564;2022-12-19T16:32:45;11.60;84.60
53962;DHT22;39868;53.398;6.564;2022-12-19T16:35:22;11.70;84.60
53962;DHT22;39868;53.398;6.564;2022-12-19T16:38:10;11.60;84.60
53962;DHT22;39868;53.398;6.564;2022-12-19T16:40:38;11.60;84.60
53962;DHT22;39868;53.398;6.564;2022-12-19T16:43:31;11.60;84.60
53962;DHT22;39868;53.398;6.564;2022-12-19T16:45:59;11.60;84.60
53962;DHT22;39868;53.398;6.564;2022-12-19T16:48:29;11.60;84.60
53962;DHT22;39868;53.398;6.564;2022-12-19T16:50:57;11.60;84.50
53962;DHT22;39868;53.398;6.564;2022-12-19T16:53:25;11.60;84.50
53962;DHT22;39868;53.398;6.564;2022-12-19T16:55:54;11.60;84.50
53962;DHT22;39868;53.398;6.564;2022-12-19T16:58:24;11.60;84.50
53962;DHT22;39868;53.398;6.564;2022-12-19T17:00:53;11.50;84.50
53962;DHT22;39868;53.398;6.564;2022-12-19T17:03:37;11.50;84.50
53962;DHT22;39868;53.398;6.564;2022-12-19T17:06:15;11.60;84.40
53962;DHT22;39868;53.398;6.564;2022-12-19T17:08:43;11.50;84.40
53962;DHT22;39868;53.398;6.564;2022-12-19T17:11:20;11.50;84.40
53962;DHT22;39868;53.398;6.564;2022-12-19T17:13:54;11.50;84.40
53962;DHT22;39868;53.398;6.564;2022-12-19T17:16:23;11.50;84.30
53962;DHT22;39868;53.398;6.564;2022-12-19T17:18:51;11.50;84.30
53962;DHT22;39868;53.398;6.564;2022-12-19T17:21:21;11.50;84.30
53962;DHT22;39868;53.398;6.564;2022-12-19T17:23:49;11.40;84.20
53962;DHT22;39868;53.398;6.564;2022-12-19T17:26:17;11.50;84.30
53962;DHT22;39868;53.398;6.564;2022-12-19T17:28:45;11.40;84.20
53962;DHT22;39868;53.398;6.564;2022-12-19T17:31:23;11.40;84.20
53962;DHT22;39868;53.398;6.564;2022-12-19T17:33:55;11.40;84.20
53962;DHT22;39868;53.398;6.564;2022-12-19T17:36:29;11.40;84.20
53962;DHT22;39868;53.398;6.564;2022-12-19T17:39:17;11.40;84.20
53962;DHT22;39868;53.398;6.564;2022-12-19T17:41:46;11.40;84.30
53962;DHT22;39868;53.398;6.564;2022-12-19T17:44:14;11.40;84.30
53962;DHT22;39868;53.398;6.564;2022-12-19T17:46:42;11.40;84.30
53962;DHT22;39868;53.398;6.564;2022-12-19T17:49:27;11.40;84.20
53962;DHT22;39868;53.398;6.564;2022-12-19T17:51:56;11.40;84.20
53962;DHT22;39868;53.398;6.564;2022-12-19T17:54:26;11.40;84.10
53962;DHT22;39868;53.398;6.564;2022-12-19T17:56:54;11.40;84.00
53962;DHT22;39868;53.398;6.564;2022-12-19T17:59:21;11.40;84.00
53962;DHT22;39868;53.398;6.564;2022-12-19T18:01:49;11.40;84.00
53962;DHT22;39868;53.398;6.564;2022-12-19T18:04:18;11.30;84.00
53962;DHT22;39868;53.398;6.564;2022-12-19T18:06:47;11.40;83.90
53962;DHT22;39868;53.398;6.564;2022-12-19T18:09:20;11.40;83.90
53962;DHT22;39868;53.398;6.564;2022-12-19T18:11:49;11.40;84.00
53962;DHT22;39868;53.398;6.564;2022-12-19T18:14:17;11.40;83.90
53962;DHT22;39868;53.398;6.564;2022-12-19T18:16:45;11.30;83.80
53962;DHT22;39868;53.398;6.564;2022-12-19T18:19:20;11.40;83.70
53962;DHT22;39868;53.398;6.564;2022-12-19T18:21:47;11.30;83.50
53962;DHT22;39868;53.398;6.564;2022-12-19T18:24:16;11.30;83.60
53962;DHT22;39868;53.398;6.564;2022-12-19T18:26:44;11.30;83.50
53962;DHT22;39868;53.398;6.564;2022-12-19T18:29:12;11.30;83.40
53962;DHT22;39868;53.398;6.564;2022-12-19T18:31:42;11.20;83.30
53962;DHT22;39868;53.398;6.564;2022-12-19T18:34:23;11.20;83.20
53962;DHT22;39868;53.398;6.564;2022-12-19T18:36:51;11.20;83.20
53962;DHT22;39868;53.398;6.564;2022-12-19T18:39:28;11.20;83.10
53962;DHT22;39868;53.398;6.564;2022-12-19T18:41:55;11.10;83.10
53962;DHT22;39868;53.398;6.564;2022-12-19T18:44:23;11.10;83.20